Time;durP1;ratioP1;P1;durP2;ratioP2;P2;SDS_P1;SDS_P2;PMS_P1;PMS_P2;Temp;Humidity;BMP_temperature;BMP_pressure;BME280_temperature;BME280_humidity;BME280_pressure;Samples;Min_cycle;Max_cycle;Signal;HPM_P1;HPM_P2
2021/08/11 00:05:13;;;;;;;15.75;8.45;;;;;;;17.89;83.85;99090.12;4182149;83;21062;-82
2021/08/11 00:11:15;;;;;;;13.85;7.85;;;;;;;17.78;84.80;99089.52;4184922;83;21007;-82
2021/08/11 00:17:16;;;;;;;11.48;7.15;;;;;;;17.90;85.49;99093.06;4178618;83;21080;-81
2021/08/11 00:23:17;;;;;;;11.73;6.95;;;;;;;17.80;85.91;99107.89;4180801;83;21051;-81
2021/08/11 00:29:19;;;;;;;13.45;7.20;;;;;;;17.69;86.16;99102.33;4173303;83;21420;-82
2021/08/11 00:35:20;;;;;;;13.90;8.15;;;;;;;17.75;86.89;99108.95;4189880;83;21663;-83
2021/08/11 00:41:24;;;;;;;13.35;8.05;;;;;;;17.79;86.98;99093.08;4172307;83;21512;-82
2021/08/11 00:47:30;;;;;;;17.05;9.33;;;;;;;17.88;86.94;99096.88;4166938;83;21053;-82
2021/08/11 00:53:33;;;;;;;;;;;;;;;17.77;87.30;99112.09;4189612;83;21587;-82
2021/08/11 00:59:37;;;;;;;10.78;7.37;;;;;;;17.88;88.70;99125.16;4164865;83;20146;-82
2021/08/11 01:05:41;;;;;;;12.82;8.08;;;;;;;17.96;88.22;99173.08;4180671;83;21009;-82
2021/08/11 01:11:45;;;;;;;13.70;8.50;;;;;;;17.99;87.95;99147.93;4087562;85;21032;-82
2021/08/11 01:17:47;;;;;;;11.80;8.28;;;;;;;17.96;88.18;99131.53;4136985;83;21531;-81
2021/08/11 01:23:56;;;;;;;14.63;9.10;;;;;;;17.76;88.02;99118.22;4087251;84;21066;-82
2021/08/11 01:30:22;;;;;;;13.80;8.73;;;;;;;17.60;88.08;99109.00;4058946;84;21084;-82
2021/08/11 01:36:35;;;;;;;16.32;9.03;;;;;;;17.49;88.53;99108.38;4113723;84;21605;-82
2021/08/11 01:42:40;;;;;;;17.65;8.60;;;;;;;17.46;88.83;99104.44;4112775;84;21065;-82
2021/08/11 01:48:45;;;;;;;17.00;8.17;;;;;;;17.56;89.57;99106.87;4076375;84;21576;-82
2021/08/11 01:54:49;;;;;;;15.95;9.10;;;;;;;17.55;89.45;99102.55;4056212;85;21068;-82
2021/08/11 02:00:53;;;;;;;15.68;8.33;;;;;;;17.43;89.42;99105.25;4051817;85;21551;-81
2021/08/11 02:06:56;;;;;;;22.35;9.13;;;;;;;17.39;89.76;99110.66;4043954;85;21051;-82
2021/08/11 02:13:00;;;;;;;15.72;8.53;;;;;;;17.33;90.26;99113.11;4064114;86;21123;-82
2021/08/11 02:19:03;;;;;;;11.33;8.13;;;;;;;17.26;90.27;99103.52;4064280;85;21078;-81
2021/08/11 02:25:11;;;;;;;13.90;8.28;;;;;;;17.24;90.50;99105.31;4078179;85;21091;-82
2021/08/11 02:31:18;;;;;;;13.10;8.05;;;;;;;17.27;90.41;99105.11;4055580;85;21528;-82
2021/08/11 02:37:41;;;;;;;13.08;7.83;;;;;;;17.20;90.74;99113.48;4172353;83;21051;-81
2021/08/11 02:44:10;;;;;;;15.72;8.00;;;;;;;17.18;91.32;99114.49;4196009;83;21515;-82
2021/08/11 02:50:15;;;;;;;15.03;7.50;;;;;;;17.04;90.89;99118.83;4174343;83;21067;-81
2021/08/11 02:56:18;;;;;;;14.90;7.67;;;;;;;17.16;91.90;99132.89;4180633;83;21087;-82
2021/08/11 03:02:21;;;;;;;12.73;6.83;;;;;;;17.19;91.48;99134.82;4179407;83;21483;-82
2021/08/11 03:08:25;;;;;;;13.45;7.85;;;;;;;17.21;91.85;99137.97;4186160;83;21011;-81
2021/08/11 03:14:27;;;;;;;15.38;8.03;;;;;;;17.11;91.46;99137.52;4154708;83;21020;-81
2021/08/11 03:20:31;;;;;;;9.63;7.08;;;;;;;17.01;91.69;99133.48;4130317;84;21347;-84
2021/08/11 03:26:33;;;;;;;14.03;7.42;;;;;;;17.03;91.85;99143.55;4018073;86;21051;-83
2021/08/11 03:32:34;;;;;;;16.15;7.47;;;;;;;16.97;92.21;99143.23;4155145;83;21030;-82
2021/08/11 03:38:36;;;;;;;15.48;7.00;;;;;;;17.01;92.55;99156.41;4199991;82;21076;-82
2021/08/11 03:44:37;;;;;;;13.15;8.20;;;;;;;17.07;92.62;99160.86;4134190;83;21470;-82
2021/08/11 03:50:39;;;;;;;11.08;7.47;;;;;;;16.93;91.87;99158.27;4174060;82;21070;-81
2021/08/11 03:56:41;;;;;;;13.62;6.97;;;;;;;16.88;92.50;99155.98;4143818;84;21066;-83
2021/08/11 04:02:42;;;;;;;13.78;8.03;;;;;;;16.97;92.86;99160.41;4127410;83;21045;-82
2021/08/11 04:08:43;;;;;;;9.95;7.40;;;;;;;16.97;92.60;99159.03;4166985;83;21067;-81
2021/08/11 04:14:45;;;;;;;12.55;7.83;;;;;;;16.91;92.74;99164.22;4078091;84;51661;-82
2021/08/11 04:20:46;;;;;;;16.48;10.90;;;;;;;16.92;93.01;99164.42;4057647;86;21120;-82
2021/08/11 04:26:47;;;;;;;12.13;9.48;;;;;;;16.76;92.69;99170.32;4117741;84;21090;-82
2021/08/11 04:32:48;;;;;;;17.70;9.25;;;;;;;16.85;93.52;99159.58;4165275;83;22621;-82
2021/08/11 04:38:49;;;;;;;13.38;8.48;;;;;;;16.97;93.87;99161.80;4163470;83;21001;-81
2021/08/11 04:44:50;;;;;;;16.27;8.25;;;;;;;17.07;93.69;99161.66;4166979;83;21073;-82
2021/08/11 04:50:51;;;;;;;13.35;8.10;;;;;;;17.08;94.05;99167.39;4166914;82;20984;-84
2021/08/11 04:56:52;;;;;;;11.63;8.43;;;;;;;17.27;94.20;99178.42;4170490;83;21011;-81
2021/08/11 05:02:53;;;;;;;14.95;8.75;;;;;;;17.40;94.03;99182.80;4171129;83;21121;-80
2021/08/11 05:08:56;;;;;;;13.03;8.68;;;;;;;17.46;93.95;99188.84;4179269;83;20997;-81
2021/08/11 05:14:58;;;;;;;14.40;8.78;;;;;;;17.51;94.07;99190.39;4171230;83;21018;-82
2021/08/11 05:21:00;;;;;;;18.45;11.78;;;;;;;17.63;94.13;99195.36;4168602;83;21066;-83
2021/08/11 05:27:01;;;;;;;13.70;9.73;;;;;;;17.70;94.07;99206.31;4170311;83;21459;-80
2021/08/11 05:33:02;;;;;;;21.33;9.65;;;;;;;17.75;94.13;99209.41;4169064;83;21075;-80
2021/08/11 05:39:04;;;;;;;17.02;11.35;;;;;;;17.83;94.22;99208.70;4176557;83;20985;-81
2021/08/11 05:45:06;;;;;;;15.30;10.63;;;;;;;17.91;94.30;99208.20;4161207;83;21114;-81
2021/08/11 05:51:07;;;;;;;19.92;10.88;;;;;;;18.02;94.28;99210.20;4159283;83;21641;-81
2021/08/11 05:57:08;;;;;;;17.27;11.63;;;;;;;18.12;94.19;99207.85;4168723;83;21009;-80
2021/08/11 06:03:10;;;;;;;17.60;11.88;;;;;;;18.24;94.18;99215.59;4166483;83;21043;-81
2021/08/11 06:09:13;;;;;;;16.70;10.28;;;;;;;18.36;94.09;99216.37;4159127;83;20997;-82
2021/08/11 06:15:14;;;;;;;20.65;11.43;;;;;;;18.57;94.11;99213.88;4164985;83;21740;-81
2021/08/11 06:21:16;;;;;;;16.77;11.18;;;;;;;18.73;93.82;99216.14;4163991;83;22173;-82
2021/08/11 06:27:17;;;;;;;20.00;11.33;;;;;;;18.96;93.63;99213.16;4167800;83;21046;-82
2021/08/11 06:33:18;;;;;;;17.87;8.25;;;;;;;19.17;93.23;99221.84;4159217;83;21557;-81
2021/08/11 06:39:20;;;;;;;14.60;8.18;;;;;;;19.34;92.84;99217.20;4179591;83;21661;-81
2021/08/11 06:45:21;;;;;;;15.50;9.10;;;;;;;19.45;92.28;99209.43;4161368;83;21044;-82
2021/08/11 06:51:24;;;;;;;14.30;7.50;;;;;;;19.57;91.71;99212.92;4172356;83;21028;-82
2021/08/11 06:57:25;;;;;;;15.35;9.23;;;;;;;19.73;91.41;99211.59;4172377;83;21098;-82
2021/08/11 07:03:27;;;;;;;10.53;6.75;;;;;;;19.86;90.96;99217.42;4174551;83;21052;-82
2021/08/11 07:09:28;;;;;;;12.40;5.90;;;;;;;19.99;90.71;99221.70;4169702;83;21541;-82
2021/08/11 07:15:29;;;;;;;10.38;5.28;;;;;;;20.10;89.86;99223.63;4172495;83;21303;-82
2021/08/11 07:21:30;;;;;;;10.50;5.53;;;;;;;20.23;89.70;99225.93;4166182;83;21086;-82
2021/08/11 07:27:32;;;;;;;7.67;4.75;;;;;;;20.31;88.94;99223.75;4164936;83;21058;-82
2021/08/11 07:33:33;;;;;;;9.30;4.97;;;;;;;20.48;88.44;99223.92;4172449;83;21055;-82
2021/08/11 07:39:35;;;;;;;5.72;4.85;;;;;;;20.67;87.78;99236.95;4173184;83;21507;-82
2021/08/11 07:45:36;;;;;;;8.33;4.28;;;;;;;20.91;87.51;99236.29;4175250;83;20995;-82
2021/08/11 07:51:38;;;;;;;7.87;4.30;;;;;;;21.17;85.92;99238.61;4162938;83;21086;-84
2021/08/11 07:57:39;;;;;;;8.63;3.52;;;;;;;21.63;85.59;99243.62;4158797;83;21535;-82
2021/08/11 08:03:40;;;;;;;6.53;3.77;;;;;;;22.26;83.69;99242.31;4159588;83;21030;-82
2021/08/11 08:09:41;;;;;;;5.22;3.72;;;;;;;22.76;81.73;99243.66;4178358;83;21071;-82
2021/08/11 08:15:42;;;;;;;7.95;4.78;;;;;;;22.87;81.26;99247.66;4163469;83;21046;-85
2021/08/11 08:21:44;;;;;;;5.60;3.52;;;;;;;23.00;80.11;99242.03;4151230;83;21074;-83
2021/08/11 08:27:46;;;;;;;4.58;3.25;;;;;;;22.98;78.55;99255.05;4160548;83;21034;-82
2021/08/11 08:33:48;;;;;;;7.75;3.80;;;;;;;23.07;77.80;99249.53;4162240;83;21090;-84
2021/08/11 08:39:49;;;;;;;6.83;4.10;;;;;;;23.24;76.92;99249.52;4156871;83;21567;-82
2021/08/11 08:45:51;;;;;;;9.75;3.80;;;;;;;23.26;76.05;99249.73;4164571;83;21622;-82
2021/08/11 08:51:53;;;;;;;5.62;3.45;;;;;;;23.24;75.45;99247.33;4170132;83;21063;-82
2021/08/11 08:57:55;;;;;;;4.97;3.37;;;;;;;23.40;75.18;99247.81;4179033;83;21105;-83
2021/08/11 09:03:56;;;;;;;7.17;3.42;;;;;;;23.41;74.45;99247.36;4178752;83;21082;-86
2021/08/11 09:09:58;;;;;;;5.60;3.27;;;;;;;23.60;73.86;99241.27;4174074;83;21067;-82
2021/08/11 09:16:07;;;;;;;7.78;3.35;;;;;;;23.66;72.87;99237.44;4149678;83;21016;-82
2021/08/11 09:22:12;;;;;;;6.83;3.70;;;;;;;23.89;71.66;99238.33;4161098;83;21062;-81
2021/08/11 09:28:18;;;;;;;4.78;3.30;;;;;;;24.25;70.79;99229.34;4158403;83;22232;-85
2021/08/11 09:34:19;;;;;;;4.95;3.02;;;;;;;24.75;70.03;99228.88;4170459;83;20988;-82
2021/08/11 09:40:32;;;;;;;6.05;3.22;;;;;;;25.45;69.73;99231.39;4168118;83;21007;-83
2021/08/11 09:46:36;;;;;;;5.00;2.87;;;;;;;26.13;69.03;99236.23;4170192;83;21043;-85
2021/08/11 09:52:49;;;;;;;3.33;2.33;;;;;;;26.93;66.87;99240.48;4160817;83;21466;-83
2021/08/11 09:59:04;;;;;;;4.45;2.87;;;;;;;27.42;65.08;99239.30;4165437;83;21570;-83
2021/08/11 10:05:06;;;;;;;5.47;2.60;;;;;;;27.96;63.21;99230.17;4166282;83;21133;-86
2021/08/11 10:11:08;;;;;;;4.08;2.20;;;;;;;28.69;62.66;99242.84;4164178;83;21110;-83
2021/08/11 10:17:09;;;;;;;3.40;2.40;;;;;;;29.08;60.59;99236.34;4166770;83;21025;-83
2021/08/11 10:23:10;;;;;;;4.50;2.55;;;;;;;29.52;58.69;99241.70;4170835;83;20953;-83
2021/08/11 10:29:12;;;;;;;5.37;2.27;;;;;;;29.58;57.89;99232.03;4165538;83;21031;-86
2021/08/11 10:35:14;;;;;;;4.00;2.47;;;;;;;29.62;56.47;99233.98;4157861;82;21319;-82
2021/08/11 10:41:15;;;;;;;4.17;2.50;;;;;;;29.54;55.35;99235.69;4168619;83;21515;-83
2021/08/11 10:47:18;;;;;;;5.12;2.58;;;;;;;29.41;52.79;99231.08;4171893;82;21050;-83
2021/08/11 10:53:21;;;;;;;4.55;2.42;;;;;;;29.44;53.72;99232.91;4172002;83;21394;-83
2021/08/11 10:59:29;;;;;;;4.25;2.95;;;;;;;29.47;52.67;99231.13;4168818;83;21005;-83
2021/08/11 11:05:39;;;;;;;7.00;3.87;;;;;;;29.50;51.72;99225.27;4158966;83;21086;-84
2021/08/11 11:11:42;;;;;;;3.80;2.65;;;;;;;29.75;49.35;99219.50;4172513;83;21091;-81
2021/08/11 11:18:11;;;;;;;5.65;2.80;;;;;;;29.81;49.87;99225.34;4160576;83;22217;-86
2021/08/11 11:24:51;;;;;;;6.05;3.20;;;;;;;30.19;48.82;99230.54;4166489;83;21579;-83
2021/08/11 11:30:52;;;;;;;6.65;2.70;;;;;;;30.55;48.99;99222.69;4177068;83;21004;-84
2021/08/11 11:37:05;;;;;;;4.25;3.12;;;;;;;30.94;48.69;99222.16;4165287;83;21647;-84
2021/08/11 11:43:32;;;;;;;5.72;2.75;;;;;;;30.99;48.21;99215.13;4162562;83;21036;-84
2021/08/11 11:49:33;;;;;;;6.08;3.00;;;;;;;31.00;47.93;99206.77;4160447;83;21017;-84
2021/08/11 11:55:41;;;;;;;3.20;2.52;;;;;;;30.68;47.53;99205.95;4172500;83;21019;-84
2021/08/11 12:01:44;;;;;;;4.85;2.90;;;;;;;30.31;46.10;99202.53;4156548;83;21087;-83
2021/08/11 12:07:45;;;;;;;4.97;3.40;;;;;;;29.22;46.40;99205.09;4158676;83;21533;-83
2021/08/11 12:13:54;;;;;;;5.62;3.00;;;;;;;28.65;46.58;99203.48;4168591;83;21956;-83
2021/08/11 12:19:58;;;;;;;7.05;3.30;;;;;;;28.14;46.72;99196.20;4167954;82;21052;-83
2021/08/11 12:26:07;;;;;;;6.78;3.55;;;;;;;27.59;46.66;99196.79;4156999;83;21009;-84
2021/08/11 12:32:09;;;;;;;6.12;3.47;;;;;;;27.20;47.41;99193.87;4161667;83;21027;-83
2021/08/11 12:38:11;;;;;;;5.75;3.50;;;;;;;27.10;48.20;99193.83;4175338;83;21013;-83
2021/08/11 12:44:23;;;;;;;6.62;3.22;;;;;;;26.83;47.65;99206.68;4162282;83;20997;-83
2021/08/11 12:50:25;;;;;;;4.30;3.00;;;;;;;26.75;47.93;99209.70;4158975;83;21595;-83
2021/08/11 12:56:26;;;;;;;3.62;2.87;;;;;;;26.67;47.36;99197.92;4166015;83;21063;-83
2021/08/11 13:02:30;;;;;;;5.55;3.00;;;;;;;26.46;47.15;99192.72;4167088;83;22161;-84
2021/08/11 13:08:38;;;;;;;5.25;3.08;;;;;;;26.28;47.36;99188.59;4167276;83;21125;-84
2021/08/11 13:14:48;;;;;;;6.67;3.33;;;;;;;26.10;47.44;99185.90;4176185;83;21072;-85
2021/08/11 13:20:50;;;;;;;5.12;3.00;;;;;;;26.03;48.10;99184.20;4161786;83;21028;-84
2021/08/11 13:26:57;;;;;;;5.12;3.20;;;;;;;25.92;48.21;99190.92;4170722;83;21657;-84
2021/08/11 13:32:58;;;;;;;2.77;2.00;;;;;;;25.92;48.18;99192.33;4159942;83;21039;-84
2021/08/11 13:39:00;;;;;;;8.68;2.98;;;;;;;25.61;48.55;99196.02;4169646;83;21562;-84
2021/08/11 13:45:01;;;;;;;4.87;2.62;;;;;;;25.55;49.34;99202.11;4156645;83;21615;-84
2021/08/11 13:51:03;;;;;;;4.00;2.60;;;;;;;25.55;48.92;99194.31;4159836;83;21087;-87
2021/08/11 13:57:05;;;;;;;3.20;2.17;;;;;;;25.47;49.02;99193.87;4165105;82;20979;-85
2021/08/11 14:03:06;;;;;;;4.70;2.65;;;;;;;25.44;49.09;99194.81;4167273;83;21129;-84
2021/08/11 14:09:08;;;;;;;4.20;2.22;;;;;;;25.40;49.06;99189.22;4166066;83;21065;-85
2021/08/11 14:15:10;;;;;;;3.90;2.37;;;;;;;25.20;49.72;99193.87;4168407;83;21563;-85
2021/08/11 14:21:11;;;;;;;6.78;2.65;;;;;;;25.19;49.79;99193.73;4165671;83;21572;-86
2021/08/11 14:27:12;;;;;;;5.12;2.40;;;;;;;25.19;49.79;99193.73;4167246;83;21015;-86
2021/08/11 14:33:14;;;;;;;4.15;2.33;;;;;;;25.10;49.48;99188.75;4168622;83;21028;-84
2021/08/11 14:39:15;;;;;;;2.65;1.98;;;;;;;25.04;50.00;99187.83;4166700;83;20991;-84
2021/08/11 14:45:17;;;;;;;5.37;2.58;;;;;;;24.98;49.45;99187.66;4172169;83;21007;-84
2021/08/11 14:51:18;;;;;;;5.37;2.60;;;;;;;24.93;49.69;99186.91;4164009;83;21420;-84
2021/08/11 14:57:20;;;;;;;3.60;2.52;;;;;;;24.87;50.04;99189.39;4157983;83;21507;-84
2021/08/11 15:03:21;;;;;;;5.28;2.65;;;;;;;24.72;50.47;99186.42;4163549;83;21048;-83
2021/08/11 15:09:22;;;;;;;5.50;2.37;;;;;;;24.61;50.69;99180.46;4171472;83;21012;-83
2021/08/11 15:15:26;;;;;;;3.80;2.20;;;;;;;24.49;51.42;99179.34;4163905;83;21028;-84
2021/08/11 15:21:27;;;;;;;4.37;1.87;;;;;;;24.44;51.34;99184.18;4173110;83;21545;-83
2021/08/11 15:27:28;;;;;;;5.75;2.20;;;;;;;24.41;51.57;99185.11;4164762;83;21541;-83
2021/08/11 15:33:30;;;;;;;4.87;2.15;;;;;;;24.31;51.40;99189.73;4161220;83;21047;-83
2021/08/11 15:39:31;;;;;;;3.58;2.12;;;;;;;24.24;51.78;99190.80;4162101;83;21032;-84
2021/08/11 15:45:32;;;;;;;2.55;2.05;;;;;;;24.22;51.53;99192.50;4173683;83;21795;-84
2021/08/11 15:51:34;;;;;;;3.60;2.00;;;;;;;24.15;51.46;99199.80;4165391;83;21043;-84
2021/08/11 15:57:35;;;;;;;3.80;1.80;;;;;;;24.08;51.84;99202.88;4162182;83;21070;-83
2021/08/11 16:03:37;;;;;;;6.40;1.98;;;;;;;23.89;51.95;99206.80;4174013;83;21058;-83
2021/08/11 16:09:38;;;;;;;3.45;2.00;;;;;;;23.71;51.75;99213.70;4170146;83;21003;-83
2021/08/11 16:15:40;;;;;;;4.25;2.10;;;;;;;23.66;51.54;99210.89;4164988;83;20983;-82
2021/08/11 16:21:42;;;;;;;5.33;2.17;;;;;;;23.61;51.81;99221.25;4168348;83;21053;-82
2021/08/11 16:27:43;;;;;;;4.28;1.92;;;;;;;23.55;52.90;99223.69;4157867;83;21074;-83
2021/08/11 16:33:45;;;;;;;3.70;1.80;;;;;;;23.51;53.33;99222.42;4172295;83;21576;-81
2021/08/11 16:39:46;;;;;;;3.65;2.30;;;;;;;23.48;53.30;99230.32;4162174;83;21009;-82
2021/08/11 16:45:47;;;;;;;4.15;2.00;;;;;;;23.40;53.35;99235.25;4162616;83;20999;-82
2021/08/11 16:51:48;;;;;;;3.50;2.10;;;;;;;23.30;53.86;99233.61;4170173;82;21055;-82
2021/08/11 16:57:50;;;;;;;3.77;2.20;;;;;;;23.23;54.03;99238.80;4168656;83;21055;-86
2021/08/11 17:03:51;;;;;;;4.42;2.60;;;;;;;23.11;54.27;99244.63;4163036;83;21446;-82
2021/08/11 17:09:52;;;;;;;3.58;1.92;;;;;;;23.02;54.35;99250.75;4164933;83;21563;-82
2021/08/11 17:15:54;;;;;;;4.78;2.00;;;;;;;22.89;54.45;99250.78;4168007;83;20986;-82
2021/08/11 17:21:55;;;;;;;5.50;2.15;;;;;;;22.73;54.89;99255.72;4162998;83;21073;-83
2021/08/11 17:27:59;;;;;;;3.50;1.92;;;;;;;22.62;55.01;99262.27;4165962;83;21021;-83
2021/08/11 17:33:59;;;;;;;3.87;1.85;;;;;;;22.47;55.63;99270.92;4163810;82;21012;-82
2021/08/11 17:40:00;;;;;;;4.05;1.90;;;;;;;22.34;55.55;99270.14;4180149;83;21026;-83
2021/08/11 17:46:02;;;;;;;2.87;1.95;;;;;;;22.21;55.75;99274.93;4166982;83;20983;-82
2021/08/11 17:52:04;;;;;;;3.83;1.82;;;;;;;21.93;56.03;99279.38;4167651;82;21039;-85
2021/08/11 17:58:06;;;;;;;4.55;2.40;;;;;;;21.77;56.65;99285.03;4165735;82;20977;-82
2021/08/11 18:04:07;;;;;;;5.22;2.45;;;;;;;21.73;57.28;99292.09;4162930;83;21668;-82
2021/08/11 18:10:11;;;;;;;4.28;2.30;;;;;;;21.66;58.34;99292.89;4160831;83;21013;-83
2021/08/11 18:16:12;;;;;;;5.22;2.12;;;;;;;21.56;58.77;99299.56;4165040;83;21036;-81
2021/08/11 18:22:14;;;;;;;5.15;2.65;;;;;;;21.39;60.22;99311.35;4171445;83;21012;-83
2021/08/11 18:28:15;;;;;;;5.58;2.30;;;;;;;21.30;60.67;99323.73;4164222;83;21103;-82
2021/08/11 18:34:16;;;;;;;8.20;2.90;;;;;;;21.25;61.11;99326.29;4164887;83;21672;-83
2021/08/11 18:40:18;;;;;;;6.85;2.62;;;;;;;21.22;61.67;99337.67;4163492;83;21678;-82
2021/08/11 18:46:20;;;;;;;5.92;2.55;;;;;;;21.19;63.22;99340.58;4163593;83;21008;-81
2021/08/11 18:52:21;;;;;;;5.45;2.72;;;;;;;21.06;63.01;99341.89;4163609;83;21504;-82
2021/08/11 18:58:22;;;;;;;6.92;2.37;;;;;;;20.91;62.60;99347.59;4172871;83;21007;-82
2021/08/11 19:04:24;;;;;;;5.47;2.90;;;;;;;20.78;63.19;99353.67;4168161;83;21477;-83
2021/08/11 19:10:25;;;;;;;4.00;2.83;;;;;;;20.69;63.39;99359.06;4045710;83;9999971;-82
2021/08/11 19:16:26;;;;;;;4.12;3.08;;;;;;;20.62;63.66;99364.81;4171053;83;21107;-83
2021/08/11 19:22:28;;;;;;;6.03;3.45;;;;;;;20.57;64.29;99372.88;4172796;83;20991;-83
2021/08/11 19:28:29;;;;;;;4.42;2.98;;;;;;;20.54;64.19;99379.30;4170784;83;21527;-84
2021/08/11 19:34:30;;;;;;;10.08;3.62;;;;;;;20.48;64.61;99386.59;4178097;82;21978;-86
2021/08/11 19:40:31;;;;;;;5.22;3.20;;;;;;;20.46;65.46;99395.97;4161514;83;21929;-83
2021/08/11 19:46:33;;;;;;;6.22;3.65;;;;;;;20.45;65.14;99407.72;4173966;83;21050;-84
2021/08/11 19:52:35;;;;;;;6.03;2.42;;;;;;;20.34;65.19;99414.72;4176933;83;21010;-82
2021/08/11 19:58:36;;;;;;;5.45;3.05;;;;;;;20.40;66.30;99419.94;4158902;83;21126;-82
2021/08/11 20:04:37;;;;;;;9.28;3.52;;;;;;;20.40;67.07;99418.55;4175062;83;21035;-81
2021/08/11 20:10:39;;;;;;;8.03;3.10;;;;;;;20.37;67.51;99423.58;4177010;83;21584;-82
2021/08/11 20:16:40;;;;;;;7.87;3.50;;;;;;;20.30;67.57;99435.63;4174249;83;21599;-82
2021/08/11 20:22:41;;;;;;;4.97;2.90;;;;;;;20.26;66.99;99438.31;4195532;83;21640;-82
2021/08/11 20:28:43;;;;;;;6.55;3.95;;;;;;;20.08;66.22;99444.98;4169774;83;21012;-82
2021/08/11 20:34:44;;;;;;;6.72;3.80;;;;;;;20.00;66.64;99441.38;4177927;82;21436;-82
2021/08/11 20:40:45;;;;;;;7.22;3.47;;;;;;;20.05;67.63;99443.06;4169780;83;21063;-82
2021/08/11 20:46:47;;;;;;;6.08;3.50;;;;;;;20.01;68.25;99448.52;4164601;83;21008;-82
2021/08/11 20:52:48;;;;;;;8.30;3.80;;;;;;;19.97;69.22;99450.57;4168745;83;21107;-82
2021/08/11 20:58:49;;;;;;;11.60;3.90;;;;;;;19.88;69.45;99453.13;4178995;83;21027;-82
2021/08/11 21:04:50;;;;;;;9.10;4.58;;;;;;;19.80;70.09;99446.94;4174638;83;21025;-83
2021/08/11 21:10:52;;;;;;;8.35;4.85;;;;;;;19.63;70.14;99453.60;4165928;83;21593;-82
2021/08/11 21:16:53;;;;;;;7.20;4.55;;;;;;;19.46;70.02;99464.42;4167239;83;21023;-82
2021/08/11 21:22:54;;;;;;;8.75;4.45;;;;;;;19.41;70.03;99461.33;4158252;83;21027;-82
2021/08/11 21:28:55;;;;;;;8.10;4.50;;;;;;;19.27;70.58;99465.70;4171615;83;21130;-82
2021/08/11 21:34:56;;;;;;;6.50;3.92;;;;;;;19.07;71.18;99466.22;4167372;83;21534;-82
2021/08/11 21:40:58;;;;;;;10.95;5.15;;;;;;;18.98;72.30;99467.36;4161425;83;21118;-82
2021/08/11 21:47:00;;;;;;;11.70;4.95;;;;;;;18.98;72.40;99481.23;4170586;83;21082;-82
2021/08/11 21:53:01;;;;;;;7.45;4.05;;;;;;;18.93;72.66;99480.31;4178670;83;21039;-82
2021/08/11 21:59:02;;;;;;;7.97;4.33;;;;;;;18.92;73.64;99490.62;4162048;83;21583;-81
2021/08/11 22:05:05;;;;;;;10.60;4.72;;;;;;;18.96;74.30;99494.73;4174934;83;21118;-82
2021/08/11 22:11:06;;;;;;;11.15;5.15;;;;;;;18.85;73.85;99501.03;4173649;83;21086;-81
2021/08/11 22:17:08;;;;;;;11.63;4.50;;;;;;;18.78;73.82;99492.83;4167750;83;21035;-81
2021/08/11 22:23:10;;;;;;;13.78;6.33;;;;;;;18.81;74.54;99497.54;4157503;83;21082;-82
2021/08/11 22:29:11;;;;;;;10.08;4.75;;;;;;;18.78;74.47;99496.36;4164761;83;21075;-82
2021/08/11 22:35:12;;;;;;;15.60;5.10;;;;;;;18.74;74.95;99503.34;4170688;83;22316;-82
2021/08/11 22:41:15;;;;;;;8.28;4.60;;;;;;;18.67;74.75;99510.39;4165448;83;21058;-82
2021/08/11 22:47:17;;;;;;;10.45;5.17;;;;;;;18.60;75.06;99503.53;4165625;83;21090;-81
2021/08/11 22:53:18;;;;;;;14.93;5.72;;;;;;;18.44;75.29;99504.75;4169212;83;21404;-82
2021/08/11 22:59:20;;;;;;;9.65;5.65;;;;;;;18.32;75.56;99502.47;4163759;83;21118;-84
2021/08/11 23:05:22;;;;;;;10.60;5.62;;;;;;;18.05;75.58;99497.47;4164643;82;21359;-81
2021/08/11 23:11:23;;;;;;;10.75;5.30;;;;;;;17.75;76.10;99502.12;4169939;82;21111;-81
2021/08/11 23:17:26;;;;;;;10.63;5.85;;;;;;;17.58;76.54;99505.25;4170646;83;21596;-82
2021/08/11 23:23:27;;;;;;;14.78;5.90;;;;;;;17.43;76.84;99516.83;4168791;83;21125;-81
2021/08/11 23:29:28;;;;;;;10.30;5.28;;;;;;;17.33;77.08;99518.48;4169082;83;21038;-81
2021/08/11 23:35:30;;;;;;;9.53;4.97;;;;;;;17.31;77.62;99520.06;4166192;83;21020;-82
2021/08/11 23:41:31;;;;;;;11.30;5.37;;;;;;;17.33;78.27;99521.25;4168657;83;21659;-82
2021/08/11 23:47:32;;;;;;;7.42;4.97;;;;;;;17.24;78.41;99520.93;4165483;83;21087;-85
2021/08/11 23:53:33;;;;;;;9.30;5.42;;;;;;;17.14;78.73;99528.11;4163828;83;21558;-81
2021/08/11 23:59:35;;;;;;;13.00;5.28;;;;;;;17.09;79.11;99522.20;4160616;83;20985;-82
